sensor_id;sensor_type;location;lat;lon;timestamp;P1;durP1;ratioP1;P2;durP2;ratioP2
74044;SDS011;62389;51.412;5.436;2023-04-15T00:01:21;5.82;;;3.35;;
74044;SDS011;62389;51.412;5.436;2023-04-15T00:03:49;7.07;;;4.10;;
74044;SDS011;62389;51.412;5.436;2023-04-15T00:06:16;6.72;;;3.22;;
74044;SDS011;62389;51.412;5.436;2023-04-15T00:08:41;9.18;;;3.28;;
74044;SDS011;62389;51.412;5.436;2023-04-15T00:11:07;6.88;;;3.50;;
74044;SDS011;62389;51.412;5.436;2023-04-15T00:13:32;7.50;;;3.97;;
74044;SDS011;62389;51.412;5.436;2023-04-15T00:15:58;7.32;;;3.80;;
74044;SDS011;62389;51.412;5.436;2023-04-15T00:18:24;7.68;;;3.65;;
74044;SDS011;62389;51.412;5.436;2023-04-15T00:20:50;7.95;;;3.58;;
74044;SDS011;62389;51.412;5.436;2023-04-15T00:23:16;9.25;;;3.75;;
74044;SDS011;62389;51.412;5.436;2023-04-15T00:25:42;7.40;;;3.72;;
74044;SDS011;62389;51.412;5.436;2023-04-15T00:28:07;8.18;;;3.80;;
74044;SDS011;62389;51.412;5.436;2023-04-15T00:30:33;8.70;;;4.00;;
74044;SDS011;62389;51.412;5.436;2023-04-15T00:32:59;7.22;;;3.90;;
74044;SDS011;62389;51.412;5.436;2023-04-15T00:35:26;9.65;;;3.78;;
74044;SDS011;62389;51.412;5.436;2023-04-15T00:37:51;7.65;;;4.22;;
74044;SDS011;62389;51.412;5.436;2023-04-15T00:40:18;8.02;;;3.65;;
74044;SDS011;62389;51.412;5.436;2023-04-15T00:42:45;7.80;;;3.58;;
74044;SDS011;62389;51.412;5.436;2023-04-15T00:45:10;6.75;;;3.72;;
74044;SDS011;62389;51.412;5.436;2023-04-15T00:47:36;11.25;;;4.03;;
74044;SDS011;62389;51.412;5.436;2023-04-15T00:50:03;10.05;;;4.18;;
74044;SDS011;62389;51.412;5.436;2023-04-15T00:52:28;6.95;;;4.03;;
74044;SDS011;62389;51.412;5.436;2023-04-15T00:54:54;5.85;;;3.90;;
74044;SDS011;62389;51.412;5.436;2023-04-15T00:57:19;11.57;;;4.50;;
74044;SDS011;62389;51.412;5.436;2023-04-15T00:59:46;8.40;;;4.45;;
74044;SDS011;62389;51.412;5.436;2023-04-15T01:02:11;6.93;;;4.65;;
74044;SDS011;62389;51.412;5.436;2023-04-15T01:04:36;9.45;;;4.47;;
74044;SDS011;62389;51.412;5.436;2023-04-15T01:07:02;7.45;;;3.80;;
74044;SDS011;62389;51.412;5.436;2023-04-15T01:09:27;6.50;;;4.70;;
74044;SDS011;62389;51.412;5.436;2023-04-15T01:11:53;9.38;;;4.72;;
74044;SDS011;62389;51.412;5.436;2023-04-15T01:14:18;9.02;;;4.35;;
74044;SDS011;62389;51.412;5.436;2023-04-15T01:16:45;8.18;;;4.22;;
74044;SDS011;62389;51.412;5.436;2023-04-15T01:19:10;8.63;;;5.05;;
74044;SDS011;62389;51.412;5.436;2023-04-15T01:21:40;8.57;;;4.70;;
74044;SDS011;62389;51.412;5.436;2023-04-15T01:24:07;7.15;;;4.70;;
74044;SDS011;62389;51.412;5.436;2023-04-15T01:26:35;9.40;;;4.82;;
74044;SDS011;62389;51.412;5.436;2023-04-15T01:29:02;9.40;;;5.10;;
74044;SDS011;62389;51.412;5.436;2023-04-15T01:31:27;8.23;;;5.00;;
74044;SDS011;62389;51.412;5.436;2023-04-15T01:33:53;8.43;;;5.15;;
74044;SDS011;62389;51.412;5.436;2023-04-15T01:36:18;11.18;;;5.38;;
74044;SDS011;62389;51.412;5.436;2023-04-15T01:38:44;8.40;;;5.32;;
74044;SDS011;62389;51.412;5.436;2023-04-15T01:41:09;11.52;;;5.60;;
74044;SDS011;62389;51.412;5.436;2023-04-15T01:43:35;8.65;;;5.43;;
74044;SDS011;62389;51.412;5.436;2023-04-15T01:46:03;8.55;;;5.75;;
74044;SDS011;62389;51.412;5.436;2023-04-15T01:48:29;15.15;;;6.25;;
74044;SDS011;62389;51.412;5.436;2023-04-15T01:50:54;11.15;;;5.72;;
74044;SDS011;62389;51.412;5.436;2023-04-15T01:53:23;9.80;;;6.38;;
74044;SDS011;62389;51.412;5.436;2023-04-15T01:55:50;10.32;;;6.13;;
74044;SDS011;62389;51.412;5.436;2023-04-15T01:58:16;22.30;;;7.30;;
74044;SDS011;62389;51.412;5.436;2023-04-15T02:00:42;12.95;;;6.40;;
74044;SDS011;62389;51.412;5.436;2023-04-15T02:03:07;12.55;;;6.65;;
74044;SDS011;62389;51.412;5.436;2023-04-15T02:05:33;13.50;;;7.03;;
74044;SDS011;62389;51.412;5.436;2023-04-15T02:07:59;12.10;;;6.63;;
74044;SDS011;62389;51.412;5.436;2023-04-15T02:10:25;13.77;;;7.13;;
74044;SDS011;62389;51.412;5.436;2023-04-15T02:12:50;10.52;;;6.75;;
74044;SDS011;62389;51.412;5.436;2023-04-15T02:15:15;10.40;;;6.80;;
74044;SDS011;62389;51.412;5.436;2023-04-15T02:17:41;11.60;;;7.25;;
74044;SDS011;62389;51.412;5.436;2023-04-15T02:20:09;12.10;;;7.28;;
74044;SDS011;62389;51.412;5.436;2023-04-15T02:22:35;12.95;;;7.40;;
74044;SDS011;62389;51.412;5.436;2023-04-15T02:25:01;12.07;;;6.97;;
74044;SDS011;62389;51.412;5.436;2023-04-15T02:27:26;10.65;;;7.18;;
74044;SDS011;62389;51.412;5.436;2023-04-15T02:29:52;13.82;;;7.72;;
74044;SDS011;62389;51.412;5.436;2023-04-15T02:32:18;12.02;;;7.25;;
74044;SDS011;62389;51.412;5.436;2023-04-15T02:34:44;10.68;;;6.70;;
74044;SDS011;62389;51.412;5.436;2023-04-15T02:37:10;16.52;;;7.95;;
74044;SDS011;62389;51.412;5.436;2023-04-15T02:39:37;14.73;;;7.30;;
74044;SDS011;62389;51.412;5.436;2023-04-15T02:42:02;12.23;;;7.07;;
74044;SDS011;62389;51.412;5.436;2023-04-15T02:44:30;13.82;;;7.28;;
74044;SDS011;62389;51.412;5.436;2023-04-15T02:46:56;13.07;;;7.38;;
74044;SDS011;62389;51.412;5.436;2023-04-15T02:49:22;12.32;;;7.18;;
74044;SDS011;62389;51.412;5.436;2023-04-15T02:51:48;15.38;;;7.63;;
74044;SDS011;62389;51.412;5.436;2023-04-15T02:54:17;14.68;;;8.27;;
74044;SDS011;62389;51.412;5.436;2023-04-15T02:56:43;14.25;;;7.90;;
74044;SDS011;62389;51.412;5.436;2023-04-15T02:59:09;14.98;;;7.93;;
74044;SDS011;62389;51.412;5.436;2023-04-15T03:01:34;13.02;;;7.88;;
74044;SDS011;62389;51.412;5.436;2023-04-15T03:03:59;17.35;;;7.65;;
74044;SDS011;62389;51.412;5.436;2023-04-15T03:06:25;11.27;;;6.78;;
74044;SDS011;62389;51.412;5.436;2023-04-15T03:08:51;13.32;;;8.20;;
74044;SDS011;62389;51.412;5.436;2023-04-15T03:11:16;12.45;;;7.80;;
74044;SDS011;62389;51.412;5.436;2023-04-15T03:13:42;11.25;;;7.57;;
74044;SDS011;62389;51.412;5.436;2023-04-15T03:16:08;12.32;;;7.07;;
74044;SDS011;62389;51.412;5.436;2023-04-15T03:18:34;18.13;;;8.52;;
74044;SDS011;62389;51.412;5.436;2023-04-15T03:20:59;12.82;;;8.75;;
74044;SDS011;62389;51.412;5.436;2023-04-15T03:23:24;17.20;;;7.70;;
74044;SDS011;62389;51.412;5.436;2023-04-15T03:25:50;14.23;;;8.98;;
74044;SDS011;62389;51.412;5.436;2023-04-15T03:28:15;13.52;;;7.10;;
74044;SDS011;62389;51.412;5.436;2023-04-15T03:30:41;13.27;;;7.63;;
74044;SDS011;62389;51.412;5.436;2023-04-15T03:33:06;13.23;;;7.38;;
74044;SDS011;62389;51.412;5.436;2023-04-15T03:35:32;13.82;;;8.18;;
74044;SDS011;62389;51.412;5.436;2023-04-15T03:37:58;14.32;;;7.43;;
74044;SDS011;62389;51.412;5.436;2023-04-15T03:40:23;12.50;;;7.53;;
74044;SDS011;62389;51.412;5.436;2023-04-15T03:42:49;12.95;;;7.30;;
74044;SDS011;62389;51.412;5.436;2023-04-15T03:45:14;17.90;;;7.35;;
74044;SDS011;62389;51.412;5.436;2023-04-15T03:47:40;16.23;;;7.75;;
74044;SDS011;62389;51.412;5.436;2023-04-15T03:50:06;11.65;;;7.18;;
74044;SDS011;62389;51.412;5.436;2023-04-15T03:52:32;14.98;;;7.95;;
74044;SDS011;62389;51.412;5.436;2023-04-15T03:54:57;12.48;;;7.55;;
74044;SDS011;62389;51.412;5.436;2023-04-15T03:57:23;16.75;;;7.95;;
74044;SDS011;62389;51.412;5.436;2023-04-15T03:59:48;14.55;;;7.75;;
74044;SDS011;62389;51.412;5.436;2023-04-15T04:02:13;13.77;;;7.05;;
74044;SDS011;62389;51.412;5.436;2023-04-15T04:04:39;14.35;;;7.25;;
74044;SDS011;62389;51.412;5.436;2023-04-15T04:07:04;12.80;;;7.65;;
74044;SDS011;62389;51.412;5.436;2023-04-15T04:09:30;12.02;;;6.82;;
74044;SDS011;62389;51.412;5.436;2023-04-15T04:11:56;12.88;;;7.15;;
74044;SDS011;62389;51.412;5.436;2023-04-15T04:14:21;13.57;;;6.97;;
74044;SDS011;62389;51.412;5.436;2023-04-15T04:16:53;13.10;;;7.00;;
74044;SDS011;62389;51.412;5.436;2023-04-15T04:19:18;14.13;;;7.00;;
74044;SDS011;62389;51.412;5.436;2023-04-15T04:21:44;12.55;;;7.47;;
74044;SDS011;62389;51.412;5.436;2023-04-15T04:24:09;10.63;;;6.97;;
74044;SDS011;62389;51.412;5.436;2023-04-15T04:26:35;13.05;;;8.65;;
74044;SDS011;62389;51.412;5.436;2023-04-15T04:29:01;11.48;;;6.43;;
74044;SDS011;62389;51.412;5.436;2023-04-15T04:31:26;10.63;;;6.55;;
74044;SDS011;62389;51.412;5.436;2023-04-15T04:33:52;12.38;;;6.60;;
74044;SDS011;62389;51.412;5.436;2023-04-15T04:36:17;15.52;;;7.40;;
74044;SDS011;62389;51.412;5.436;2023-04-15T04:38:42;11.63;;;7.38;;
74044;SDS011;62389;51.412;5.436;2023-04-15T04:41:08;11.25;;;7.32;;
74044;SDS011;62389;51.412;5.436;2023-04-15T04:43:33;12.00;;;7.38;;
74044;SDS011;62389;51.412;5.436;2023-04-15T04:45:58;13.88;;;6.82;;
74044;SDS011;62389;51.412;5.436;2023-04-15T04:48:24;11.35;;;6.80;;
74044;SDS011;62389;51.412;5.436;2023-04-15T04:50:49;11.60;;;7.20;;
74044;SDS011;62389;51.412;5.436;2023-04-15T04:53:15;11.45;;;7.18;;
74044;SDS011;62389;51.412;5.436;2023-04-15T04:55:42;9.95;;;6.72;;
74044;SDS011;62389;51.412;5.436;2023-04-15T04:58:07;12.38;;;6.00;;
74044;SDS011;62389;51.412;5.436;2023-04-15T05:00:32;11.68;;;7.25;;
74044;SDS011;62389;51.412;5.436;2023-04-15T05:02:58;13.15;;;7.13;;
74044;SDS011;62389;51.412;5.436;2023-04-15T05:05:23;16.63;;;6.90;;
74044;SDS011;62389;51.412;5.436;2023-04-15T05:07:49;10.63;;;7.45;;
74044;SDS011;62389;51.412;5.436;2023-04-15T05:10:15;13.10;;;7.57;;
74044;SDS011;62389;51.412;5.436;2023-04-15T05:12:42;11.32;;;6.38;;
74044;SDS011;62389;51.412;5.436;2023-04-15T05:15:08;12.02;;;6.95;;
74044;SDS011;62389;51.412;5.436;2023-04-15T05:17:34;11.40;;;7.15;;
74044;SDS011;62389;51.412;5.436;2023-04-15T05:19:59;11.25;;;6.53;;
74044;SDS011;62389;51.412;5.436;2023-04-15T05:22:25;12.00;;;6.45;;
74044;SDS011;62389;51.412;5.436;2023-04-15T05:24:51;12.60;;;7.88;;
74044;SDS011;62389;51.412;5.436;2023-04-15T05:27:16;12.82;;;6.78;;
74044;SDS011;62389;51.412;5.436;2023-04-15T05:29:43;10.02;;;6.47;;
74044;SDS011;62389;51.412;5.436;2023-04-15T05:32:08;10.55;;;6.63;;
74044;SDS011;62389;51.412;5.436;2023-04-15T05:34:34;10.93;;;6.82;;
74044;SDS011;62389;51.412;5.436;2023-04-15T05:36:59;10.90;;;6.65;;
74044;SDS011;62389;51.412;5.436;2023-04-15T05:39:25;12.05;;;6.53;;
74044;SDS011;62389;51.412;5.436;2023-04-15T05:41:50;13.40;;;7.28;;
74044;SDS011;62389;51.412;5.436;2023-04-15T05:44:16;10.20;;;6.43;;
74044;SDS011;62389;51.412;5.436;2023-04-15T05:46:41;12.93;;;7.13;;
74044;SDS011;62389;51.412;5.436;2023-04-15T05:49:07;10.52;;;6.70;;
74044;SDS011;62389;51.412;5.436;2023-04-15T05:51:32;10.18;;;7.78;;
74044;SDS011;62389;51.412;5.436;2023-04-15T05:53:58;10.77;;;6.03;;
74044;SDS011;62389;51.412;5.436;2023-04-15T05:56:23;12.20;;;6.90;;
74044;SDS011;62389;51.412;5.436;2023-04-15T05:58:50;11.02;;;7.05;;
74044;SDS011;62389;51.412;5.436;2023-04-15T06:01:16;13.50;;;7.13;;
74044;SDS011;62389;51.412;5.436;2023-04-15T06:03:41;12.65;;;7.32;;
74044;SDS011;62389;51.412;5.436;2023-04-15T06:06:07;12.50;;;7.05;;
74044;SDS011;62389;51.412;5.436;2023-04-15T06:08:32;13.50;;;6.82;;
74044;SDS011;62389;51.412;5.436;2023-04-15T06:10:58;10.75;;;6.63;;
74044;SDS011;62389;51.412;5.436;2023-04-15T06:13:24;14.98;;;7.10;;
74044;SDS011;62389;51.412;5.436;2023-04-15T06:15:50;11.90;;;7.30;;
74044;SDS011;62389;51.412;5.436;2023-04-15T06:18:15;13.20;;;7.15;;
74044;SDS011;62389;51.412;5.436;2023-04-15T06:20:40;11.40;;;6.97;;
74044;SDS011;62389;51.412;5.436;2023-04-15T06:23:06;12.38;;;6.90;;
74044;SDS011;62389;51.412;5.436;2023-04-15T06:25:31;11.82;;;7.78;;
74044;SDS011;62389;51.412;5.436;2023-04-15T06:27:57;12.05;;;7.35;;
74044;SDS011;62389;51.412;5.436;2023-04-15T06:30:22;11.60;;;7.40;;
74044;SDS011;62389;51.412;5.436;2023-04-15T06:32:47;10.75;;;6.47;;
74044;SDS011;62389;51.412;5.436;2023-04-15T06:35:13;12.35;;;6.30;;
74044;SDS011;62389;51.412;5.436;2023-04-15T06:37:39;13.98;;;6.60;;
74044;SDS011;62389;51.412;5.436;2023-04-15T06:40:04;10.27;;;6.13;;
74044;SDS011;62389;51.412;5.436;2023-04-15T06:42:30;10.30;;;5.93;;
74044;SDS011;62389;51.412;5.436;2023-04-15T06:44:56;8.50;;;5.90;;
74044;SDS011;62389;51.412;5.436;2023-04-15T06:47:21;9.23;;;5.88;;
74044;SDS011;62389;51.412;5.436;2023-04-15T06:49:47;12.93;;;5.85;;
74044;SDS011;62389;51.412;5.436;2023-04-15T06:52:12;10.48;;;5.97;;
74044;SDS011;62389;51.412;5.436;2023-04-15T06:54:38;8.93;;;5.47;;
74044;SDS011;62389;51.412;5.436;2023-04-15T06:57:04;10.32;;;5.70;;
74044;SDS011;62389;51.412;5.436;2023-04-15T06:59:30;8.52;;;5.50;;
74044;SDS011;62389;51.412;5.436;2023-04-15T07:01:55;10.40;;;5.78;;
74044;SDS011;62389;51.412;5.436;2023-04-15T07:04:21;9.57;;;5.72;;
74044;SDS011;62389;51.412;5.436;2023-04-15T07:06:46;9.90;;;6.15;;
74044;SDS011;62389;51.412;5.436;2023-04-15T07:09:11;8.52;;;5.63;;
74044;SDS011;62389;51.412;5.436;2023-04-15T07:11:37;8.45;;;5.53;;
74044;SDS011;62389;51.412;5.436;2023-04-15T07:14:02;9.23;;;5.50;;
74044;SDS011;62389;51.412;5.436;2023-04-15T07:16:28;7.60;;;5.05;;
74044;SDS011;62389;51.412;5.436;2023-04-15T07:18:53;10.05;;;5.55;;
74044;SDS011;62389;51.412;5.436;2023-04-15T07:21:19;9.55;;;5.68;;
74044;SDS011;62389;51.412;5.436;2023-04-15T07:23:45;8.07;;;5.55;;
74044;SDS011;62389;51.412;5.436;2023-04-15T07:26:10;7.93;;;4.95;;
74044;SDS011;62389;51.412;5.436;2023-04-15T07:28:36;9.27;;;5.82;;
74044;SDS011;62389;51.412;5.436;2023-04-15T07:31:01;9.32;;;5.68;;
74044;SDS011;62389;51.412;5.436;2023-04-15T07:33:26;9.75;;;5.47;;
74044;SDS011;62389;51.412;5.436;2023-04-15T07:35:52;7.78;;;4.88;;
74044;SDS011;62389;51.412;5.436;2023-04-15T07:38:18;7.97;;;5.20;;
74044;SDS011;62389;51.412;5.436;2023-04-15T07:40:43;9.05;;;5.53;;
74044;SDS011;62389;51.412;5.436;2023-04-15T07:43:08;7.55;;;4.97;;
74044;SDS011;62389;51.412;5.436;2023-04-15T07:45:34;10.00;;;5.40;;
74044;SDS011;62389;51.412;5.436;2023-04-15T07:48:00;8.18;;;5.40;;
74044;SDS011;62389;51.412;5.436;2023-04-15T07:50:26;9.13;;;5.07;;
74044;SDS011;62389;51.412;5.436;2023-04-15T07:52:51;8.68;;;5.40;;
74044;SDS011;62389;51.412;5.436;2023-04-15T07:55:17;8.00;;;4.78;;
74044;SDS011;62389;51.412;5.436;2023-04-15T07:57:45;7.80;;;4.70;;
74044;SDS011;62389;51.412;5.436;2023-04-15T08:00:11;6.68;;;4.32;;
74044;SDS011;62389;51.412;5.436;2023-04-15T08:02:37;6.57;;;4.50;;
74044;SDS011;62389;51.412;5.436;2023-04-15T08:05:03;8.05;;;4.10;;
74044;SDS011;62389;51.412;5.436;2023-04-15T08:07:29;7.65;;;4.65;;
74044;SDS011;62389;51.412;5.436;2023-04-15T08:09:55;9.95;;;4.53;;
74044;SDS011;62389;51.412;5.436;2023-04-15T08:12:20;8.60;;;4.60;;
74044;SDS011;62389;51.412;5.436;2023-04-15T08:14:46;5.78;;;3.75;;
74044;SDS011;62389;51.412;5.436;2023-04-15T08:17:11;7.55;;;4.40;;
74044;SDS011;62389;51.412;5.436;2023-04-15T08:19:37;6.85;;;3.75;;
74044;SDS011;62389;51.412;5.436;2023-04-15T08:22:02;6.43;;;4.35;;
74044;SDS011;62389;51.412;5.436;2023-04-15T08:24:28;5.88;;;4.03;;
74044;SDS011;62389;51.412;5.436;2023-04-15T08:26:54;6.50;;;4.03;;
74044;SDS011;62389;51.412;5.436;2023-04-15T08:29:20;5.78;;;3.78;;
74044;SDS011;62389;51.412;5.436;2023-04-15T08:31:45;6.97;;;4.43;;
74044;SDS011;62389;51.412;5.436;2023-04-15T08:34:11;6.78;;;3.80;;
74044;SDS011;62389;51.412;5.436;2023-04-15T08:36:37;7.55;;;4.03;;
74044;SDS011;62389;51.412;5.436;2023-04-15T08:39:02;5.40;;;3.65;;
74044;SDS011;62389;51.412;5.436;2023-04-15T08:41:30;5.18;;;3.65;;
74044;SDS011;62389;51.412;5.436;2023-04-15T08:44:04;7.43;;;4.05;;
74044;SDS011;62389;51.412;5.436;2023-04-15T08:46:30;7.95;;;3.90;;
74044;SDS011;62389;51.412;5.436;2023-04-15T08:48:58;6.07;;;3.85;;
74044;SDS011;62389;51.412;5.436;2023-04-15T08:51:27;4.35;;;3.15;;
74044;SDS011;62389;51.412;5.436;2023-04-15T08:53:53;5.10;;;3.30;;
74044;SDS011;62389;51.412;5.436;2023-04-15T08:56:19;6.07;;;3.25;;
74044;SDS011;62389;51.412;5.436;2023-04-15T08:58:49;5.57;;;3.25;;
74044;SDS011;62389;51.412;5.436;2023-04-15T09:01:14;5.65;;;3.35;;
74044;SDS011;62389;51.412;5.436;2023-04-15T09:03:40;5.03;;;2.65;;
74044;SDS011;62389;51.412;5.436;2023-04-15T09:06:06;6.82;;;2.67;;
74044;SDS011;62389;51.412;5.436;2023-04-15T09:08:32;5.43;;;2.80;;
74044;SDS011;62389;51.412;5.436;2023-04-15T09:11:01;4.68;;;2.97;;
74044;SDS011;62389;51.412;5.436;2023-04-15T09:13:27;6.65;;;2.85;;
74044;SDS011;62389;51.412;5.436;2023-04-15T09:15:54;7.38;;;3.10;;
74044;SDS011;62389;51.412;5.436;2023-04-15T09:18:26;5.57;;;3.30;;
74044;SDS011;62389;51.412;5.436;2023-04-15T09:21:02;4.55;;;2.45;;
74044;SDS011;62389;51.412;5.436;2023-04-15T09:23:29;5.28;;;3.00;;
74044;SDS011;62389;51.412;5.436;2023-04-15T09:25:55;4.43;;;2.55;;
74044;SDS011;62389;51.412;5.436;2023-04-15T09:28:25;5.45;;;3.03;;
74044;SDS011;62389;51.412;5.436;2023-04-15T09:30:51;5.60;;;2.53;;
74044;SDS011;62389;51.412;5.436;2023-04-15T09:33:19;4.95;;;2.90;;
74044;SDS011;62389;51.412;5.436;2023-04-15T09:35:58;4.93;;;2.47;;
74044;SDS011;62389;51.412;5.436;2023-04-15T09:38:26;4.07;;;2.83;;
74044;SDS011;62389;51.412;5.436;2023-04-15T09:40:51;4.75;;;2.90;;
74044;SDS011;62389;51.412;5.436;2023-04-15T09:43:17;6.15;;;2.95;;
74044;SDS011;62389;51.412;5.436;2023-04-15T09:45:46;5.50;;;2.95;;
74044;SDS011;62389;51.412;5.436;2023-04-15T09:48:14;4.47;;;2.60;;
74044;SDS011;62389;51.412;5.436;2023-04-15T09:50:41;5.32;;;3.10;;
74044;SDS011;62389;51.412;5.436;2023-04-15T09:53:14;4.30;;;2.70;;
74044;SDS011;62389;51.412;5.436;2023-04-15T09:55:44;3.95;;;2.72;;
74044;SDS011;62389;51.412;5.436;2023-04-15T09:58:23;5.18;;;3.20;;
74044;SDS011;62389;51.412;5.436;2023-04-15T10:00:51;3.33;;;2.30;;
74044;SDS011;62389;51.412;5.436;2023-04-15T10:03:18;4.82;;;2.15;;
74044;SDS011;62389;51.412;5.436;2023-04-15T10:05:47;4.97;;;2.40;;
74044;SDS011;62389;51.412;5.436;2023-04-15T10:08:15;3.92;;;2.40;;
74044;SDS011;62389;51.412;5.436;2023-04-15T10:10:45;4.28;;;2.70;;
74044;SDS011;62389;51.412;5.436;2023-04-15T10:13:25;4.43;;;2.30;;
74044;SDS011;62389;51.412;5.436;2023-04-15T10:16:26;5.53;;;2.85;;
74044;SDS011;62389;51.412;5.436;2023-04-15T10:18:46;3.75;;;2.28;;
74044;SDS011;62389;51.412;5.436;2023-04-15T10:21:15;5.30;;;2.80;;
74044;SDS011;62389;51.412;5.436;2023-04-15T10:23:43;5.68;;;3.10;;
74044;SDS011;62389;51.412;5.436;2023-04-15T10:26:09;4.63;;;2.97;;
74044;SDS011;62389;51.412;5.436;2023-04-15T10:31:01;4.78;;;2.72;;
74044;SDS011;62389;51.412;5.436;2023-04-15T10:33:29;5.43;;;2.63;;
74044;SDS011;62389;51.412;5.436;2023-04-15T10:35:56;4.32;;;2.33;;
74044;SDS011;62389;51.412;5.436;2023-04-15T10:38:38;2.97;;;2.08;;
74044;SDS011;62389;51.412;5.436;2023-04-15T10:46:21;4.60;;;2.75;;
74044;SDS011;62389;51.412;5.436;2023-04-15T10:48:50;5.45;;;2.80;;
74044;SDS011;62389;51.412;5.436;2023-04-15T10:51:25;4.03;;;1.92;;
74044;SDS011;62389;51.412;5.436;2023-04-15T10:53:55;4.10;;;1.80;;
74044;SDS011;62389;51.412;5.436;2023-04-15T10:56:22;3.10;;;1.98;;
74044;SDS011;62389;51.412;5.436;2023-04-15T10:58:48;3.47;;;1.83;;
74044;SDS011;62389;51.412;5.436;2023-04-15T11:01:13;4.30;;;2.08;;
74044;SDS011;62389;51.412;5.436;2023-04-15T11:03:39;3.05;;;1.98;;
74044;SDS011;62389;51.412;5.436;2023-04-15T11:06:07;2.80;;;1.85;;
74044;SDS011;62389;51.412;5.436;2023-04-15T11:08:54;3.97;;;2.35;;
74044;SDS011;62389;51.412;5.436;2023-04-15T11:11:23;3.65;;;2.28;;
74044;SDS011;62389;51.412;5.436;2023-04-15T11:14:26;5.60;;;2.55;;
74044;SDS011;62389;51.412;5.436;2023-04-15T11:16:51;3.55;;;1.92;;
74044;SDS011;62389;51.412;5.436;2023-04-15T11:19:17;3.90;;;1.83;;
74044;SDS011;62389;51.412;5.436;2023-04-15T11:21:42;2.97;;;1.73;;
74044;SDS011;62389;51.412;5.436;2023-04-15T11:24:08;2.58;;;1.52;;
74044;SDS011;62389;51.412;5.436;2023-04-15T11:26:33;2.28;;;1.40;;
74044;SDS011;62389;51.412;5.436;2023-04-15T11:28:59;3.25;;;2.22;;
74044;SDS011;62389;51.412;5.436;2023-04-15T11:31:25;3.42;;;1.73;;
74044;SDS011;62389;51.412;5.436;2023-04-15T11:36:17;4.47;;;2.38;;
74044;SDS011;62389;51.412;5.436;2023-04-15T11:38:43;3.67;;;1.58;;
74044;SDS011;62389;51.412;5.436;2023-04-15T11:41:11;3.13;;;2.00;;
74044;SDS011;62389;51.412;5.436;2023-04-15T11:43:36;3.35;;;1.80;;
74044;SDS011;62389;51.412;5.436;2023-04-15T11:46:02;3.38;;;1.95;;
74044;SDS011;62389;51.412;5.436;2023-04-15T11:48:29;4.38;;;2.38;;
74044;SDS011;62389;51.412;5.436;2023-04-15T11:50:57;4.72;;;2.30;;
74044;SDS011;62389;51.412;5.436;2023-04-15T11:53:23;4.28;;;2.05;;
74044;SDS011;62389;51.412;5.436;2023-04-15T11:55:59;3.75;;;2.30;;
74044;SDS011;62389;51.412;5.436;2023-04-15T11:58:25;4.78;;;2.25;;
74044;SDS011;62389;51.412;5.436;2023-04-15T12:00:52;3.03;;;1.88;;
74044;SDS011;62389;51.412;5.436;2023-04-15T12:03:25;3.13;;;1.85;;
74044;SDS011;62389;51.412;5.436;2023-04-15T12:14:02;3.88;;;1.65;;
74044;SDS011;62389;51.412;5.436;2023-04-15T12:18:54;3.45;;;1.92;;
74044;SDS011;62389;51.412;5.436;2023-04-15T12:21:21;3.15;;;1.73;;
74044;SDS011;62389;51.412;5.436;2023-04-15T12:23:49;4.22;;;1.88;;
74044;SDS011;62389;51.412;5.436;2023-04-15T12:26:15;3.28;;;2.20;;
74044;SDS011;62389;51.412;5.436;2023-04-15T12:28:41;6.30;;;2.15;;
74044;SDS011;62389;51.412;5.436;2023-04-15T12:31:10;3.20;;;1.85;;
74044;SDS011;62389;51.412;5.436;2023-04-15T12:33:37;3.95;;;1.95;;
74044;SDS011;62389;51.412;5.436;2023-04-15T12:36:03;5.78;;;1.77;;
74044;SDS011;62389;51.412;5.436;2023-04-15T12:38:29;3.22;;;1.50;;
74044;SDS011;62389;51.412;5.436;2023-04-15T12:40:56;2.83;;;1.70;;
74044;SDS011;62389;51.412;5.436;2023-04-15T12:43:22;3.30;;;1.70;;
74044;SDS011;62389;51.412;5.436;2023-04-15T12:45:48;3.63;;;1.27;;
74044;SDS011;62389;51.412;5.436;2023-04-15T12:48:13;3.60;;;1.80;;
74044;SDS011;62389;51.412;5.436;2023-04-15T12:50:38;3.53;;;2.17;;
74044;SDS011;62389;51.412;5.436;2023-04-15T12:53:04;5.70;;;2.40;;
74044;SDS011;62389;51.412;5.436;2023-04-15T12:55:29;4.40;;;1.92;;
74044;SDS011;62389;51.412;5.436;2023-04-15T12:57:55;5.70;;;1.98;;
74044;SDS011;62389;51.412;5.436;2023-04-15T13:00:21;4.57;;;1.85;;
74044;SDS011;62389;51.412;5.436;2023-04-15T13:02:47;4.78;;;1.83;;
74044;SDS011;62389;51.412;5.436;2023-04-15T13:05:13;3.17;;;1.90;;
74044;SDS011;62389;51.412;5.436;2023-04-15T13:07:39;4.47;;;2.40;;
74044;SDS011;62389;51.412;5.436;2023-04-15T13:10:05;3.65;;;1.92;;
74044;SDS011;62389;51.412;5.436;2023-04-15T13:12:31;3.70;;;1.60;;
74044;SDS011;62389;51.412;5.436;2023-04-15T13:15:00;2.47;;;1.40;;
74044;SDS011;62389;51.412;5.436;2023-04-15T13:17:26;2.28;;;1.50;;
74044;SDS011;62389;51.412;5.436;2023-04-15T13:19:51;2.88;;;1.70;;
74044;SDS011;62389;51.412;5.436;2023-04-15T13:22:16;4.03;;;1.80;;
74044;SDS011;62389;51.412;5.436;2023-04-15T13:24:42;2.67;;;1.58;;
74044;SDS011;62389;51.412;5.436;2023-04-15T13:27:08;2.97;;;1.73;;
74044;SDS011;62389;51.412;5.436;2023-04-15T13:29:33;2.58;;;1.75;;
74044;SDS011;62389;51.412;5.436;2023-04-15T13:31:58;2.88;;;1.45;;
74044;SDS011;62389;51.412;5.436;2023-04-15T13:34:25;4.00;;;1.58;;
74044;SDS011;62389;51.412;5.436;2023-04-15T13:36:50;5.03;;;1.90;;
74044;SDS011;62389;51.412;5.436;2023-04-15T13:39:16;3.40;;;1.55;;
74044;SDS011;62389;51.412;5.436;2023-04-15T13:41:41;2.30;;;1.30;;
74044;SDS011;62389;51.412;5.436;2023-04-15T13:44:07;2.60;;;1.30;;
74044;SDS011;62389;51.412;5.436;2023-04-15T13:46:32;2.60;;;1.30;;
74044;SDS011;62389;51.412;5.436;2023-04-15T13:48:57;2.55;;;1.50;;
74044;SDS011;62389;51.412;5.436;2023-04-15T13:51:23;4.35;;;1.67;;
74044;SDS011;62389;51.412;5.436;2023-04-15T13:53:48;3.83;;;1.52;;
74044;SDS011;62389;51.412;5.436;2023-04-15T13:56:13;3.15;;;1.40;;
74044;SDS011;62389;51.412;5.436;2023-04-15T13:58:39;2.50;;;1.27;;
74044;SDS011;62389;51.412;5.436;2023-04-15T14:01:05;2.33;;;1.40;;
74044;SDS011;62389;51.412;5.436;2023-04-15T14:03:30;3.67;;;1.58;;
74044;SDS011;62389;51.412;5.436;2023-04-15T14:05:56;3.17;;;1.70;;
74044;SDS011;62389;51.412;5.436;2023-04-15T14:08:22;3.53;;;1.70;;
74044;SDS011;62389;51.412;5.436;2023-04-15T14:10:49;2.35;;;1.35;;
74044;SDS011;62389;51.412;5.436;2023-04-15T14:13:14;2.92;;;1.55;;
74044;SDS011;62389;51.412;5.436;2023-04-15T14:15:40;4.07;;;1.65;;
74044;SDS011;62389;51.412;5.436;2023-04-15T14:18:06;2.28;;;1.20;;
74044;SDS011;62389;51.412;5.436;2023-04-15T14:20:31;3.10;;;1.33;;
74044;SDS011;62389;51.412;5.436;2023-04-15T14:22:57;4.38;;;1.88;;
74044;SDS011;62389;51.412;5.436;2023-04-15T14:25:22;3.92;;;1.65;;
74044;SDS011;62389;51.412;5.436;2023-04-15T14:27:48;2.85;;;1.40;;
74044;SDS011;62389;51.412;5.436;2023-04-15T14:30:13;3.28;;;1.60;;
74044;SDS011;62389;51.412;5.436;2023-04-15T14:32:39;3.13;;;1.60;;
74044;SDS011;62389;51.412;5.436;2023-04-15T14:35:05;2.78;;;1.17;;
74044;SDS011;62389;51.412;5.436;2023-04-15T14:37:31;2.60;;;1.20;;
74044;SDS011;62389;51.412;5.436;2023-04-15T14:39:57;2.45;;;1.42;;
74044;SDS011;62389;51.412;5.436;2023-04-15T14:42:22;2.95;;;1.40;;
74044;SDS011;62389;51.412;5.436;2023-04-15T14:44:47;2.83;;;1.05;;
74044;SDS011;62389;51.412;5.436;2023-04-15T14:47:13;4.65;;;1.30;;
74044;SDS011;62389;51.412;5.436;2023-04-15T14:49:38;2.10;;;1.52;;
74044;SDS011;62389;51.412;5.436;2023-04-15T14:52:04;2.90;;;1.35;;
74044;SDS011;62389;51.412;5.436;2023-04-15T14:54:29;2.00;;;0.90;;
74044;SDS011;62389;51.412;5.436;2023-04-15T14:56:54;2.63;;;1.10;;
74044;SDS011;62389;51.412;5.436;2023-04-15T14:59:20;2.05;;;1.05;;